sensor_id;sensor_type;location;lat;lon;timestamp;P1;durP1;ratioP1;P2;durP2;ratioP2
44670;SDS011;48397;53.016;-2.260;2023-02-13T00:01:05;16.63;;;9.63;;
44670;SDS011;48397;53.016;-2.260;2023-02-13T00:03:32;18.00;;;9.73;;
44670;SDS011;48397;53.016;-2.260;2023-02-13T00:06:00;16.08;;;9.00;;
44670;SDS011;48397;53.016;-2.260;2023-02-13T00:08:28;15.68;;;9.38;;
44670;SDS011;48397;53.016;-2.260;2023-02-13T00:10:56;14.68;;;8.02;;
44670;SDS011;48397;53.016;-2.260;2023-02-13T00:13:24;15.85;;;8.73;;
44670;SDS011;48397;53.016;-2.260;2023-02-13T00:15:58;11.35;;;7.15;;
44670;SDS011;48397;53.016;-2.260;2023-02-13T00:18:28;13.38;;;8.00;;
44670;SDS011;48397;53.016;-2.260;2023-02-13T00:21:00;14.55;;;8.32;;
44670;SDS011;48397;53.016;-2.260;2023-02-13T00:23:31;14.85;;;8.40;;
44670;SDS011;48397;53.016;-2.260;2023-02-13T00:26:00;13.88;;;7.93;;
44670;SDS011;48397;53.016;-2.260;2023-02-13T00:28:32;12.00;;;7.03;;
44670;SDS011;48397;53.016;-2.260;2023-02-13T00:33:23;15.32;;;8.25;;
44670;SDS011;48397;53.016;-2.260;2023-02-13T00:35:51;12.85;;;7.75;;
44670;SDS011;48397;53.016;-2.260;2023-02-13T00:38:28;14.90;;;7.60;;
44670;SDS011;48397;53.016;-2.260;2023-02-13T00:40:57;13.43;;;7.72;;
44670;SDS011;48397;53.016;-2.260;2023-02-13T00:43:25;15.00;;;8.10;;
44670;SDS011;48397;53.016;-2.260;2023-02-13T00:45:53;11.65;;;7.20;;
44670;SDS011;48397;53.016;-2.260;2023-02-13T00:48:23;10.63;;;6.45;;
44670;SDS011;48397;53.016;-2.260;2023-02-13T00:50:52;11.10;;;6.82;;
44670;SDS011;48397;53.016;-2.260;2023-02-13T00:53:21;11.48;;;6.75;;
44670;SDS011;48397;53.016;-2.260;2023-02-13T00:55:51;11.57;;;7.03;;
44670;SDS011;48397;53.016;-2.260;2023-02-13T00:58:19;10.98;;;7.15;;
44670;SDS011;48397;53.016;-2.260;2023-02-13T01:00:47;12.90;;;6.93;;
44670;SDS011;48397;53.016;-2.260;2023-02-13T01:03:15;12.82;;;6.47;;
44670;SDS011;48397;53.016;-2.260;2023-02-13T01:05:45;10.38;;;6.70;;
44670;SDS011;48397;53.016;-2.260;2023-02-13T01:08:14;11.15;;;6.40;;
44670;SDS011;48397;53.016;-2.260;2023-02-13T01:10:44;10.27;;;6.47;;
44670;SDS011;48397;53.016;-2.260;2023-02-13T01:13:13;10.77;;;6.68;;
44670;SDS011;48397;53.016;-2.260;2023-02-13T01:15:42;11.10;;;6.55;;
44670;SDS011;48397;53.016;-2.260;2023-02-13T01:18:14;10.18;;;6.07;;
44670;SDS011;48397;53.016;-2.260;2023-02-13T01:20:43;12.25;;;6.88;;
44670;SDS011;48397;53.016;-2.260;2023-02-13T01:23:12;10.70;;;6.32;;
44670;SDS011;48397;53.016;-2.260;2023-02-13T01:25:43;9.75;;;6.07;;
44670;SDS011;48397;53.016;-2.260;2023-02-13T01:28:10;10.80;;;5.88;;
44670;SDS011;48397;53.016;-2.260;2023-02-13T01:30:38;11.27;;;7.10;;
44670;SDS011;48397;53.016;-2.260;2023-02-13T01:33:06;10.48;;;6.32;;
44670;SDS011;48397;53.016;-2.260;2023-02-13T01:35:39;9.75;;;6.30;;
44670;SDS011;48397;53.016;-2.260;2023-02-13T01:38:08;10.48;;;6.40;;
44670;SDS011;48397;53.016;-2.260;2023-02-13T01:40:42;9.32;;;6.35;;
44670;SDS011;48397;53.016;-2.260;2023-02-13T01:43:14;10.27;;;6.20;;
44670;SDS011;48397;53.016;-2.260;2023-02-13T01:48:12;11.25;;;6.35;;
44670;SDS011;48397;53.016;-2.260;2023-02-13T01:50:48;12.90;;;6.20;;
44670;SDS011;48397;53.016;-2.260;2023-02-13T01:53:32;10.38;;;6.07;;
44670;SDS011;48397;53.016;-2.260;2023-02-13T01:56:05;9.07;;;6.00;;
44670;SDS011;48397;53.016;-2.260;2023-02-13T01:58:40;10.15;;;6.00;;
44670;SDS011;48397;53.016;-2.260;2023-02-13T02:01:10;9.80;;;5.82;;
44670;SDS011;48397;53.016;-2.260;2023-02-13T02:03:40;9.27;;;5.30;;
44670;SDS011;48397;53.016;-2.260;2023-02-13T02:06:25;8.75;;;5.32;;
44670;SDS011;48397;53.016;-2.260;2023-02-13T02:08:57;9.73;;;5.55;;
44670;SDS011;48397;53.016;-2.260;2023-02-13T02:14:07;7.55;;;4.93;;
44670;SDS011;48397;53.016;-2.260;2023-02-13T02:19:04;10.30;;;5.90;;
44670;SDS011;48397;53.016;-2.260;2023-02-13T02:48:51;8.45;;;4.97;;
44670;SDS011;48397;53.016;-2.260;2023-02-13T02:54:18;8.60;;;4.80;;
44670;SDS011;48397;53.016;-2.260;2023-02-13T02:57:14;7.18;;;4.57;;
44670;SDS011;48397;53.016;-2.260;2023-02-13T02:59:54;8.15;;;5.03;;
44670;SDS011;48397;53.016;-2.260;2023-02-13T03:02:43;8.90;;;4.57;;
44670;SDS011;48397;53.016;-2.260;2023-02-13T03:05:30;10.38;;;4.65;;
44670;SDS011;48397;53.016;-2.260;2023-02-13T03:08:19;8.18;;;4.53;;
44670;SDS011;48397;53.016;-2.260;2023-02-13T03:11:07;11.32;;;5.60;;
44670;SDS011;48397;53.016;-2.260;2023-02-13T03:13:54;10.98;;;5.15;;
44670;SDS011;48397;53.016;-2.260;2023-02-13T03:16:26;11.00;;;4.90;;
44670;SDS011;48397;53.016;-2.260;2023-02-13T03:19:16;8.95;;;4.40;;
44670;SDS011;48397;53.016;-2.260;2023-02-13T03:22:57;10.52;;;4.75;;
44670;SDS011;48397;53.016;-2.260;2023-02-13T03:25:28;10.60;;;5.35;;
44670;SDS011;48397;53.016;-2.260;2023-02-13T03:28:09;11.10;;;5.72;;
44670;SDS011;48397;53.016;-2.260;2023-02-13T03:42:33;13.20;;;5.43;;
44670;SDS011;48397;53.016;-2.260;2023-02-13T03:45:11;11.95;;;6.22;;
44670;SDS011;48397;53.016;-2.260;2023-02-13T03:48:00;12.90;;;5.78;;
44670;SDS011;48397;53.016;-2.260;2023-02-13T03:50:37;13.32;;;6.60;;
44670;SDS011;48397;53.016;-2.260;2023-02-13T03:53:10;13.45;;;6.90;;
44670;SDS011;48397;53.016;-2.260;2023-02-13T03:55:40;13.43;;;7.05;;
44670;SDS011;48397;53.016;-2.260;2023-02-13T03:58:40;14.40;;;6.65;;
44670;SDS011;48397;53.016;-2.260;2023-02-13T04:01:31;15.32;;;6.90;;
44670;SDS011;48397;53.016;-2.260;2023-02-13T04:04:09;15.00;;;7.30;;
44670;SDS011;48397;53.016;-2.260;2023-02-13T04:09:25;17.20;;;7.45;;
44670;SDS011;48397;53.016;-2.260;2023-02-13T04:17:31;16.63;;;7.22;;
44670;SDS011;48397;53.016;-2.260;2023-02-13T04:20:02;14.40;;;6.43;;
44670;SDS011;48397;53.016;-2.260;2023-02-13T04:22:31;15.90;;;7.80;;
44670;SDS011;48397;53.016;-2.260;2023-02-13T04:24:59;16.55;;;7.95;;
44670;SDS011;48397;53.016;-2.260;2023-02-13T04:27:27;19.92;;;8.50;;
44670;SDS011;48397;53.016;-2.260;2023-02-13T04:29:55;17.75;;;7.80;;
44670;SDS011;48397;53.016;-2.260;2023-02-13T04:32:23;18.50;;;8.43;;
44670;SDS011;48397;53.016;-2.260;2023-02-13T04:34:51;18.00;;;8.77;;
44670;SDS011;48397;53.016;-2.260;2023-02-13T04:37:18;16.95;;;7.55;;
44670;SDS011;48397;53.016;-2.260;2023-02-13T04:39:46;14.32;;;7.50;;
44670;SDS011;48397;53.016;-2.260;2023-02-13T04:42:14;15.20;;;7.80;;
44670;SDS011;48397;53.016;-2.260;2023-02-13T04:44:42;15.32;;;7.40;;
44670;SDS011;48397;53.016;-2.260;2023-02-13T04:47:10;16.58;;;7.78;;
44670;SDS011;48397;53.016;-2.260;2023-02-13T04:49:37;16.00;;;7.70;;
44670;SDS011;48397;53.016;-2.260;2023-02-13T04:54:33;17.55;;;8.10;;
44670;SDS011;48397;53.016;-2.260;2023-02-13T04:57:01;20.27;;;9.52;;
44670;SDS011;48397;53.016;-2.260;2023-02-13T04:59:28;18.60;;;8.50;;
44670;SDS011;48397;53.016;-2.260;2023-02-13T05:01:56;16.02;;;7.57;;
44670;SDS011;48397;53.016;-2.260;2023-02-13T05:04:25;21.25;;;8.52;;
44670;SDS011;48397;53.016;-2.260;2023-02-13T05:06:55;20.05;;;8.93;;
44670;SDS011;48397;53.016;-2.260;2023-02-13T05:09:22;14.32;;;7.13;;
44670;SDS011;48397;53.016;-2.260;2023-02-13T05:11:51;18.92;;;8.50;;
44670;SDS011;48397;53.016;-2.260;2023-02-13T05:14:19;17.00;;;7.45;;
44670;SDS011;48397;53.016;-2.260;2023-02-13T05:16:47;17.45;;;8.30;;
44670;SDS011;48397;53.016;-2.260;2023-02-13T05:19:15;17.48;;;8.35;;
44670;SDS011;48397;53.016;-2.260;2023-02-13T05:21:43;21.17;;;9.27;;
44670;SDS011;48397;53.016;-2.260;2023-02-13T05:24:29;23.45;;;9.57;;
44670;SDS011;48397;53.016;-2.260;2023-02-13T05:26:57;18.25;;;7.72;;
44670;SDS011;48397;53.016;-2.260;2023-02-13T05:29:25;22.05;;;8.73;;
44670;SDS011;48397;53.016;-2.260;2023-02-13T05:31:54;21.67;;;9.02;;
44670;SDS011;48397;53.016;-2.260;2023-02-13T05:34:23;20.73;;;9.13;;
44670;SDS011;48397;53.016;-2.260;2023-02-13T05:36:53;17.90;;;8.50;;
44670;SDS011;48397;53.016;-2.260;2023-02-13T05:39:21;20.67;;;9.00;;
44670;SDS011;48397;53.016;-2.260;2023-02-13T05:41:49;18.08;;;8.50;;
44670;SDS011;48397;53.016;-2.260;2023-02-13T05:44:16;24.27;;;7.82;;
44670;SDS011;48397;53.016;-2.260;2023-02-13T05:46:44;20.63;;;9.15;;
44670;SDS011;48397;53.016;-2.260;2023-02-13T05:49:12;23.15;;;9.85;;
44670;SDS011;48397;53.016;-2.260;2023-02-13T05:51:42;17.85;;;8.63;;
44670;SDS011;48397;53.016;-2.260;2023-02-13T05:54:12;19.00;;;7.82;;
44670;SDS011;48397;53.016;-2.260;2023-02-13T05:56:40;22.30;;;9.32;;
44670;SDS011;48397;53.016;-2.260;2023-02-13T05:59:08;24.75;;;9.13;;
44670;SDS011;48397;53.016;-2.260;2023-02-13T06:04:03;22.17;;;9.90;;
44670;SDS011;48397;53.016;-2.260;2023-02-13T06:06:31;22.17;;;8.60;;
44670;SDS011;48397;53.016;-2.260;2023-02-13T06:08:59;22.10;;;9.82;;
44670;SDS011;48397;53.016;-2.260;2023-02-13T06:11:27;21.98;;;9.38;;
44670;SDS011;48397;53.016;-2.260;2023-02-13T06:13:56;23.45;;;9.77;;
44670;SDS011;48397;53.016;-2.260;2023-02-13T06:16:23;24.35;;;9.77;;
44670;SDS011;48397;53.016;-2.260;2023-02-13T06:18:51;26.33;;;11.10;;
44670;SDS011;48397;53.016;-2.260;2023-02-13T06:21:19;26.38;;;11.30;;
44670;SDS011;48397;53.016;-2.260;2023-02-13T06:23:48;23.45;;;10.23;;
44670;SDS011;48397;53.016;-2.260;2023-02-13T06:26:16;22.30;;;9.55;;
44670;SDS011;48397;53.016;-2.260;2023-02-13T06:31:12;24.10;;;9.88;;
44670;SDS011;48397;53.016;-2.260;2023-02-13T06:33:40;21.65;;;8.25;;
44670;SDS011;48397;53.016;-2.260;2023-02-13T06:36:08;21.58;;;9.82;;
44670;SDS011;48397;53.016;-2.260;2023-02-13T06:38:36;19.73;;;9.23;;
44670;SDS011;48397;53.016;-2.260;2023-02-13T06:41:03;24.42;;;9.63;;
44670;SDS011;48397;53.016;-2.260;2023-02-13T06:43:31;20.75;;;9.30;;
44670;SDS011;48397;53.016;-2.260;2023-02-13T06:46:01;19.48;;;8.70;;
44670;SDS011;48397;53.016;-2.260;2023-02-13T06:48:31;26.73;;;9.90;;
44670;SDS011;48397;53.016;-2.260;2023-02-13T06:50:59;28.92;;;10.05;;
44670;SDS011;48397;53.016;-2.260;2023-02-13T06:53:30;25.50;;;10.20;;
44670;SDS011;48397;53.016;-2.260;2023-02-13T06:55:57;24.25;;;8.95;;
44670;SDS011;48397;53.016;-2.260;2023-02-13T06:58:25;27.75;;;10.55;;
44670;SDS011;48397;53.016;-2.260;2023-02-13T07:00:53;25.40;;;10.88;;
44670;SDS011;48397;53.016;-2.260;2023-02-13T07:08:18;23.30;;;10.00;;
44670;SDS011;48397;53.016;-2.260;2023-02-13T07:10:45;20.15;;;9.13;;
44670;SDS011;48397;53.016;-2.260;2023-02-13T07:13:13;30.00;;;10.45;;
44670;SDS011;48397;53.016;-2.260;2023-02-13T07:15:41;26.65;;;10.88;;
44670;SDS011;48397;53.016;-2.260;2023-02-13T07:18:08;25.38;;;11.02;;
44670;SDS011;48397;53.016;-2.260;2023-02-13T07:20:36;23.58;;;11.02;;
44670;SDS011;48397;53.016;-2.260;2023-02-13T07:23:05;26.73;;;10.45;;
44670;SDS011;48397;53.016;-2.260;2023-02-13T07:25:33;26.05;;;11.23;;
44670;SDS011;48397;53.016;-2.260;2023-02-13T07:28:05;26.38;;;10.50;;
44670;SDS011;48397;53.016;-2.260;2023-02-13T07:30:33;26.85;;;11.68;;
44670;SDS011;48397;53.016;-2.260;2023-02-13T07:33:01;25.77;;;11.57;;
44670;SDS011;48397;53.016;-2.260;2023-02-13T07:35:30;28.25;;;11.35;;
44670;SDS011;48397;53.016;-2.260;2023-02-13T07:37:59;32.22;;;12.48;;
44670;SDS011;48397;53.016;-2.260;2023-02-13T07:40:26;30.83;;;11.40;;
44670;SDS011;48397;53.016;-2.260;2023-02-13T07:42:55;24.25;;;10.70;;
44670;SDS011;48397;53.016;-2.260;2023-02-13T07:45:22;27.15;;;11.50;;
44670;SDS011;48397;53.016;-2.260;2023-02-13T07:47:50;27.35;;;11.18;;
44670;SDS011;48397;53.016;-2.260;2023-02-13T07:50:20;26.50;;;11.15;;
44670;SDS011;48397;53.016;-2.260;2023-02-13T07:57:55;23.33;;;10.98;;
44670;SDS011;48397;53.016;-2.260;2023-02-13T08:02:51;26.50;;;10.30;;
44670;SDS011;48397;53.016;-2.260;2023-02-13T08:05:19;29.38;;;12.95;;
44670;SDS011;48397;53.016;-2.260;2023-02-13T08:07:46;29.08;;;11.82;;
44670;SDS011;48397;53.016;-2.260;2023-02-13T08:10:14;29.10;;;12.82;;
44670;SDS011;48397;53.016;-2.260;2023-02-13T08:13:00;27.80;;;11.02;;
44670;SDS011;48397;53.016;-2.260;2023-02-13T08:17:56;31.15;;;12.50;;
44670;SDS011;48397;53.016;-2.260;2023-02-13T08:20:24;24.73;;;10.55;;
44670;SDS011;48397;53.016;-2.260;2023-02-13T08:22:52;26.50;;;10.50;;
44670;SDS011;48397;53.016;-2.260;2023-02-13T08:25:19;29.70;;;12.90;;
44670;SDS011;48397;53.016;-2.260;2023-02-13T08:27:47;30.27;;;12.73;;
44670;SDS011;48397;53.016;-2.260;2023-02-13T08:30:17;29.63;;;13.23;;
44670;SDS011;48397;53.016;-2.260;2023-02-13T08:32:45;30.77;;;12.23;;
44670;SDS011;48397;53.016;-2.260;2023-02-13T08:35:20;29.48;;;12.82;;
44670;SDS011;48397;53.016;-2.260;2023-02-13T08:37:49;19.58;;;8.63;;
44670;SDS011;48397;53.016;-2.260;2023-02-13T08:40:16;31.70;;;12.77;;
44670;SDS011;48397;53.016;-2.260;2023-02-13T08:42:44;27.13;;;11.13;;
44670;SDS011;48397;53.016;-2.260;2023-02-13T08:45:12;35.00;;;13.00;;
44670;SDS011;48397;53.016;-2.260;2023-02-13T08:47:39;27.27;;;11.60;;
44670;SDS011;48397;53.016;-2.260;2023-02-13T08:50:07;31.52;;;13.45;;
44670;SDS011;48397;53.016;-2.260;2023-02-13T08:52:35;30.42;;;12.73;;
44670;SDS011;48397;53.016;-2.260;2023-02-13T08:55:03;27.17;;;12.23;;
44670;SDS011;48397;53.016;-2.260;2023-02-13T08:57:30;32.92;;;12.65;;
44670;SDS011;48397;53.016;-2.260;2023-02-13T08:59:58;29.05;;;13.38;;
44670;SDS011;48397;53.016;-2.260;2023-02-13T09:02:26;30.70;;;12.40;;
44670;SDS011;48397;53.016;-2.260;2023-02-13T09:04:54;32.72;;;14.40;;
44670;SDS011;48397;53.016;-2.260;2023-02-13T09:07:22;29.92;;;13.05;;
44670;SDS011;48397;53.016;-2.260;2023-02-13T09:09:50;29.90;;;12.18;;
44670;SDS011;48397;53.016;-2.260;2023-02-13T09:12:18;29.13;;;12.23;;
44670;SDS011;48397;53.016;-2.260;2023-02-13T09:14:46;29.92;;;13.18;;
44670;SDS011;48397;53.016;-2.260;2023-02-13T09:17:14;32.20;;;13.80;;
44670;SDS011;48397;53.016;-2.260;2023-02-13T09:19:44;28.27;;;12.88;;
44670;SDS011;48397;53.016;-2.260;2023-02-13T09:22:13;29.63;;;12.48;;
44670;SDS011;48397;53.016;-2.260;2023-02-13T09:24:43;30.98;;;12.88;;
44670;SDS011;48397;53.016;-2.260;2023-02-13T09:27:11;30.15;;;12.90;;
44670;SDS011;48397;53.016;-2.260;2023-02-13T09:29:38;28.58;;;13.15;;
44670;SDS011;48397;53.016;-2.260;2023-02-13T09:32:06;29.55;;;12.25;;
44670;SDS011;48397;53.016;-2.260;2023-02-13T09:34:34;30.20;;;13.02;;
44670;SDS011;48397;53.016;-2.260;2023-02-13T09:37:02;27.13;;;11.95;;
44670;SDS011;48397;53.016;-2.260;2023-02-13T09:39:29;28.02;;;12.23;;
44670;SDS011;48397;53.016;-2.260;2023-02-13T09:41:57;30.45;;;12.30;;
44670;SDS011;48397;53.016;-2.260;2023-02-13T09:44:45;26.48;;;11.30;;
44670;SDS011;48397;53.016;-2.260;2023-02-13T09:47:16;28.20;;;13.15;;
44670;SDS011;48397;53.016;-2.260;2023-02-13T09:49:48;31.23;;;12.45;;
44670;SDS011;48397;53.016;-2.260;2023-02-13T09:52:27;29.58;;;11.95;;
44670;SDS011;48397;53.016;-2.260;2023-02-13T09:55:05;29.27;;;13.32;;
44670;SDS011;48397;53.016;-2.260;2023-02-13T10:04:11;28.88;;;13.18;;
44670;SDS011;48397;53.016;-2.260;2023-02-13T10:06:45;26.85;;;12.00;;
44670;SDS011;48397;53.016;-2.260;2023-02-13T10:09:20;32.40;;;12.45;;
44670;SDS011;48397;53.016;-2.260;2023-02-13T10:15:02;25.83;;;10.68;;
44670;SDS011;48397;53.016;-2.260;2023-02-13T10:17:41;29.13;;;12.55;;
44670;SDS011;48397;53.016;-2.260;2023-02-13T10:20:33;27.83;;;10.90;;
44670;SDS011;48397;53.016;-2.260;2023-02-13T10:23:32;29.70;;;12.20;;
44670;SDS011;48397;53.016;-2.260;2023-02-13T10:26:03;22.38;;;10.30;;
44670;SDS011;48397;53.016;-2.260;2023-02-13T10:28:37;27.52;;;12.13;;
44670;SDS011;48397;53.016;-2.260;2023-02-13T10:31:09;25.05;;;10.93;;
44670;SDS011;48397;53.016;-2.260;2023-02-13T10:36:18;29.70;;;12.68;;
44670;SDS011;48397;53.016;-2.260;2023-02-13T10:41:35;25.15;;;11.25;;
44670;SDS011;48397;53.016;-2.260;2023-02-13T10:50:08;26.52;;;12.52;;
44670;SDS011;48397;53.016;-2.260;2023-02-13T11:00:55;29.77;;;12.82;;
44670;SDS011;48397;53.016;-2.260;2023-02-13T11:03:31;35.95;;;14.80;;
44670;SDS011;48397;53.016;-2.260;2023-02-13T11:05:59;24.92;;;11.60;;
44670;SDS011;48397;53.016;-2.260;2023-02-13T11:08:39;35.88;;;13.82;;
44670;SDS011;48397;53.016;-2.260;2023-02-13T11:11:34;24.27;;;11.25;;
44670;SDS011;48397;53.016;-2.260;2023-02-13T11:14:14;31.50;;;12.73;;
44670;SDS011;48397;53.016;-2.260;2023-02-13T11:19:32;35.30;;;14.10;;
44670;SDS011;48397;53.016;-2.260;2023-02-13T11:24:34;30.13;;;14.07;;
44670;SDS011;48397;53.016;-2.260;2023-02-13T11:27:04;34.60;;;12.77;;
44670;SDS011;48397;53.016;-2.260;2023-02-13T11:29:36;28.52;;;13.85;;
44670;SDS011;48397;53.016;-2.260;2023-02-13T11:32:18;29.63;;;12.82;;
44670;SDS011;48397;53.016;-2.260;2023-02-13T11:34:52;29.88;;;12.35;;
44670;SDS011;48397;53.016;-2.260;2023-02-13T11:37:26;29.10;;;12.95;;
44670;SDS011;48397;53.016;-2.260;2023-02-13T11:39:56;25.52;;;12.00;;
44670;SDS011;48397;53.016;-2.260;2023-02-13T11:42:27;33.35;;;14.20;;
44670;SDS011;48397;53.016;-2.260;2023-02-13T11:45:19;27.20;;;12.90;;
44670;SDS011;48397;53.016;-2.260;2023-02-13T11:47:50;28.75;;;12.98;;
44670;SDS011;48397;53.016;-2.260;2023-02-13T11:50:33;31.52;;;13.02;;
44670;SDS011;48397;53.016;-2.260;2023-02-13T11:53:06;27.52;;;12.45;;
44670;SDS011;48397;53.016;-2.260;2023-02-13T11:55:43;31.15;;;12.82;;
44670;SDS011;48397;53.016;-2.260;2023-02-13T11:58:27;31.10;;;13.68;;
44670;SDS011;48397;53.016;-2.260;2023-02-13T12:07:00;31.88;;;12.25;;
44670;SDS011;48397;53.016;-2.260;2023-02-13T12:09:31;26.73;;;11.48;;
44670;SDS011;48397;53.016;-2.260;2023-02-13T12:11:59;28.50;;;11.35;;
44670;SDS011;48397;53.016;-2.260;2023-02-13T12:14:33;35.58;;;12.82;;
44670;SDS011;48397;53.016;-2.260;2023-02-13T12:17:06;32.35;;;13.15;;
44670;SDS011;48397;53.016;-2.260;2023-02-13T12:19:51;30.42;;;12.02;;
44670;SDS011;48397;53.016;-2.260;2023-02-13T12:22:31;30.83;;;11.57;;
44670;SDS011;48397;53.016;-2.260;2023-02-13T12:39:29;27.25;;;11.93;;
44670;SDS011;48397;53.016;-2.260;2023-02-13T12:44:43;31.70;;;12.90;;
44670;SDS011;48397;53.016;-2.260;2023-02-13T12:47:36;31.65;;;12.40;;
44670;SDS011;48397;53.016;-2.260;2023-02-13T12:50:31;29.92;;;13.52;;
44670;SDS011;48397;53.016;-2.260;2023-02-13T13:13:28;28.95;;;13.40;;
44670;SDS011;48397;53.016;-2.260;2023-02-13T13:16:24;29.30;;;11.85;;
44670;SDS011;48397;53.016;-2.260;2023-02-13T13:21:38;29.42;;;12.65;;
44670;SDS011;48397;53.016;-2.260;2023-02-13T13:24:27;29.50;;;13.18;;
44670;SDS011;48397;53.016;-2.260;2023-02-13T13:26:56;26.75;;;13.05;;
44670;SDS011;48397;53.016;-2.260;2023-02-13T13:29:28;33.63;;;12.82;;
44670;SDS011;48397;53.016;-2.260;2023-02-13T13:32:18;27.73;;;12.23;;
44670;SDS011;48397;53.016;-2.260;2023-02-13T13:34:48;31.10;;;12.85;;
44670;SDS011;48397;53.016;-2.260;2023-02-13T13:40:15;34.00;;;13.60;;
44670;SDS011;48397;53.016;-2.260;2023-02-13T13:42:55;30.00;;;13.70;;
44670;SDS011;48397;53.016;-2.260;2023-02-13T13:50:34;34.22;;;14.05;;
44670;SDS011;48397;53.016;-2.260;2023-02-13T14:03:47;32.90;;;14.50;;
44670;SDS011;48397;53.016;-2.260;2023-02-13T14:06:24;35.50;;;13.77;;
44670;SDS011;48397;53.016;-2.260;2023-02-13T14:08:54;35.60;;;14.65;;
44670;SDS011;48397;53.016;-2.260;2023-02-13T14:14:00;28.40;;;13.43;;
44670;SDS011;48397;53.016;-2.260;2023-02-13T14:16:36;29.80;;;12.63;;
44670;SDS011;48397;53.016;-2.260;2023-02-13T14:24:57;35.05;;;15.35;;
44670;SDS011;48397;53.016;-2.260;2023-02-13T14:30:05;29.25;;;14.02;;
44670;SDS011;48397;53.016;-2.260;2023-02-13T14:32:54;30.60;;;14.52;;
44670;SDS011;48397;53.016;-2.260;2023-02-13T14:35:24;35.40;;;15.10;;
44670;SDS011;48397;53.016;-2.260;2023-02-13T14:37:55;33.22;;;15.60;;
44670;SDS011;48397;53.016;-2.260;2023-02-13T14:46:26;31.13;;;14.02;;
44670;SDS011;48397;53.016;-2.260;2023-02-13T14:49:05;30.40;;;13.88;;
44670;SDS011;48397;53.016;-2.260;2023-02-13T14:51:50;32.55;;;13.95;;
44670;SDS011;48397;53.016;-2.260;2023-02-13T14:59:55;29.38;;;13.52;;
44670;SDS011;48397;53.016;-2.260;2023-02-13T15:02:48;28.77;;;14.07;;
44670;SDS011;48397;53.016;-2.260;2023-02-13T15:05:20;30.30;;;13.70;;
44670;SDS011;48397;53.016;-2.260;2023-02-13T15:07:56;31.70;;;13.80;;
44670;SDS011;48397;53.016;-2.260;2023-02-13T15:10:44;31.75;;;14.05;;
44670;SDS011;48397;53.016;-2.260;2023-02-13T15:13:20;30.70;;;14.18;;
44670;SDS011;48397;53.016;-2.260;2023-02-13T15:16:04;32.15;;;15.40;;
44670;SDS011;48397;53.016;-2.260;2023-02-13T15:18:38;32.50;;;15.07;;
44670;SDS011;48397;53.016;-2.260;2023-02-13T15:21:19;30.10;;;13.40;;
44670;SDS011;48397;53.016;-2.260;2023-02-13T15:23:53;26.40;;;11.82;;
44670;SDS011;48397;53.016;-2.260;2023-02-13T15:26:24;31.88;;;13.98;;
44670;SDS011;48397;53.016;-2.260;2023-02-13T15:29:02;30.08;;;14.60;;
44670;SDS011;48397;53.016;-2.260;2023-02-13T15:31:54;31.08;;;14.68;;
44670;SDS011;48397;53.016;-2.260;2023-02-13T15:34:29;30.23;;;13.90;;
44670;SDS011;48397;53.016;-2.260;2023-02-13T15:37:00;35.47;;;15.38;;
44670;SDS011;48397;53.016;-2.260;2023-02-13T15:39:29;33.50;;;14.65;;
44670;SDS011;48397;53.016;-2.260;2023-02-13T15:41:59;29.48;;;13.80;;
44670;SDS011;48397;53.016;-2.260;2023-02-13T15:44:32;31.98;;;15.23;;
44670;SDS011;48397;53.016;-2.260;2023-02-13T15:47:06;32.88;;;14.45;;
44670;SDS011;48397;53.016;-2.260;2023-02-13T15:49:44;33.03;;;14.20;;
44670;SDS011;48397;53.016;-2.260;2023-02-13T15:52:14;34.83;;;15.40;;
44670;SDS011;48397;53.016;-2.260;2023-02-13T15:54:50;33.88;;;15.23;;
44670;SDS011;48397;53.016;-2.260;2023-02-13T15:57:19;31.65;;;13.77;;
44670;SDS011;48397;53.016;-2.260;2023-02-13T15:59:49;34.20;;;15.05;;
44670;SDS011;48397;53.016;-2.260;2023-02-13T16:02:20;33.47;;;15.30;;
44670;SDS011;48397;53.016;-2.260;2023-02-13T16:04:54;31.05;;;13.95;;
44670;SDS011;48397;53.016;-2.260;2023-02-13T16:09:50;35.72;;;15.98;;
44670;SDS011;48397;53.016;-2.260;2023-02-13T16:14:54;33.13;;;14.55;;
44670;SDS011;48397;53.016;-2.260;2023-02-13T16:17:26;40.00;;;16.02;;
44670;SDS011;48397;53.016;-2.260;2023-02-13T16:30:29;33.17;;;14.95;;
44670;SDS011;48397;53.016;-2.260;2023-02-13T16:33:36;35.17;;;15.07;;
44670;SDS011;48397;53.016;-2.260;2023-02-13T16:35:56;37.45;;;15.73;;
44670;SDS011;48397;53.016;-2.260;2023-02-13T16:38:47;39.78;;;16.27;;
44670;SDS011;48397;53.016;-2.260;2023-02-13T16:46:48;37.53;;;15.95;;
44670;SDS011;48397;53.016;-2.260;2023-02-13T16:49:20;38.38;;;16.10;;
44670;SDS011;48397;53.016;-2.260;2023-02-13T16:54:56;41.65;;;16.27;;
44670;SDS011;48397;53.016;-2.260;2023-02-13T16:57:27;38.97;;;15.98;;
44670;SDS011;48397;53.016;-2.260;2023-02-13T17:02:44;38.50;;;16.00;;
44670;SDS011;48397;53.016;-2.260;2023-02-13T17:05:20;40.83;;;17.17;;
44670;SDS011;48397;53.016;-2.260;2023-02-13T17:07:53;41.97;;;16.60;;
44670;SDS011;48397;53.016;-2.260;2023-02-13T17:15:41;43.90;;;17.90;;
44670;SDS011;48397;53.016;-2.260;2023-02-13T17:18:11;40.65;;;17.55;;
44670;SDS011;48397;53.016;-2.260;2023-02-13T17:20:42;42.40;;;18.17;;
44670;SDS011;48397;53.016;-2.260;2023-02-13T17:23:19;42.58;;;17.27;;
44670;SDS011;48397;53.016;-2.260;2023-02-13T17:25:50;46.33;;;19.15;;
44670;SDS011;48397;53.016;-2.260;2023-02-13T17:28:26;48.10;;;19.00;;
44670;SDS011;48397;53.016;-2.260;2023-02-13T17:30:56;47.58;;;20.00;;
44670;SDS011;48397;53.016;-2.260;2023-02-13T17:33:27;48.58;;;18.30;;
44670;SDS011;48397;53.016;-2.260;2023-02-13T17:35:56;47.03;;;19.67;;
44670;SDS011;48397;53.016;-2.260;2023-02-13T17:38:24;35.30;;;13.98;;
44670;SDS011;48397;53.016;-2.260;2023-02-13T17:40:51;45.20;;;17.42;;
44670;SDS011;48397;53.016;-2.260;2023-02-13T17:43:20;49.70;;;20.25;;
44670;SDS011;48397;53.016;-2.260;2023-02-13T17:45:47;47.55;;;18.02;;
44670;SDS011;48397;53.016;-2.260;2023-02-13T17:48:16;44.40;;;17.92;;
44670;SDS011;48397;53.016;-2.260;2023-02-13T17:50:44;50.72;;;18.13;;
44670;SDS011;48397;53.016;-2.260;2023-02-13T17:53:15;43.88;;;17.40;;
44670;SDS011;48397;53.016;-2.260;2023-02-13T17:55:52;47.00;;;19.15;;
44670;SDS011;48397;53.016;-2.260;2023-02-13T17:58:19;49.55;;;19.40;;
44670;SDS011;48397;53.016;-2.260;2023-02-13T18:00:47;48.65;;;19.33;;
44670;SDS011;48397;53.016;-2.260;2023-02-13T18:05:44;50.05;;;21.48;;
44670;SDS011;48397;53.016;-2.260;2023-02-13T18:08:14;51.75;;;21.17;;
44670;SDS011;48397;53.016;-2.260;2023-02-13T18:10:42;53.67;;;20.63;;
44670;SDS011;48397;53.016;-2.260;2023-02-13T18:13:10;51.60;;;21.80;;
44670;SDS011;48397;53.016;-2.260;2023-02-13T18:15:39;47.88;;;20.60;;
44670;SDS011;48397;53.016;-2.260;2023-02-13T18:18:08;53.00;;;20.10;;
44670;SDS011;48397;53.016;-2.260;2023-02-13T18:20:39;50.25;;;20.55;;
44670;SDS011;48397;53.016;-2.260;2023-02-13T18:23:07;53.30;;;20.73;;
44670;SDS011;48397;53.016;-2.260;2023-02-13T18:28:02;57.30;;;24.90;;
44670;SDS011;48397;53.016;-2.260;2023-02-13T18:30:30;57.40;;;25.00;;
44670;SDS011;48397;53.016;-2.260;2023-02-13T18:32:58;61.72;;;24.80;;
44670;SDS011;48397;53.016;-2.260;2023-02-13T18:35:26;61.22;;;23.98;;
44670;SDS011;48397;53.016;-2.260;2023-02-13T18:40:21;62.00;;;25.67;;
44670;SDS011;48397;53.016;-2.260;2023-02-13T18:42:49;61.88;;;23.20;;
44670;SDS011;48397;53.016;-2.260;2023-02-13T18:45:18;57.83;;;22.20;;
44670;SDS011;48397;53.016;-2.260;2023-02-13T18:47:46;54.08;;;21.13;;